sensor_id;sensor_type;location;lat;lon;timestamp;pressure;altitude;pressure_sealevel;temperature;humidity
4024;BME280;2026;51.002;13.668;2022-09-30T00:00:37;98278.06;;;7.24;80.30
4024;BME280;2026;51.002;13.668;2022-09-30T00:05:40;98279.81;;;7.30;79.83
4024;BME280;2026;51.002;13.668;2022-09-30T00:10:44;98287.28;;;7.27;80.02
4024;BME280;2026;51.002;13.668;2022-09-30T00:15:47;98278.91;;;7.06;80.72
4024;BME280;2026;51.002;13.668;2022-09-30T00:20:50;98288.53;;;7.24;80.19
4024;BME280;2026;51.002;13.668;2022-09-30T00:25:59;98288.00;;;7.34;79.67
4024;BME280;2026;51.002;13.668;2022-09-30T00:31:03;98277.91;;;7.37;79.21
4024;BME280;2026;51.002;13.668;2022-09-30T00:36:08;98280.69;;;7.24;79.77
4024;BME280;2026;51.002;13.668;2022-09-30T00:41:12;98296.53;;;7.29;80.16
4024;BME280;2026;51.002;13.668;2022-09-30T00:46:19;98299.13;;;7.29;79.71
4024;BME280;2026;51.002;13.668;2022-09-30T00:51:28;98304.31;;;7.17;80.55
4024;BME280;2026;51.002;13.668;2022-09-30T00:56:36;98310.59;;;7.28;79.79
4024;BME280;2026;51.002;13.668;2022-09-30T01:01:41;98309.47;;;7.24;80.07
4024;BME280;2026;51.002;13.668;2022-09-30T01:06:44;98292.53;;;7.27;79.99
4024;BME280;2026;51.002;13.668;2022-09-30T01:11:48;98303.50;;;7.17;80.82
4024;BME280;2026;51.002;13.668;2022-09-30T01:16:58;98301.81;;;7.22;79.91
4024;BME280;2026;51.002;13.668;2022-09-30T01:22:25;98311.22;;;7.12;80.98
4024;BME280;2026;51.002;13.668;2022-09-30T01:27:46;98302.19;;;7.26;80.21
4024;BME280;2026;51.002;13.668;2022-09-30T01:33:20;98308.75;;;7.17;80.50
4024;BME280;2026;51.002;13.668;2022-09-30T01:38:38;98308.28;;;7.20;80.45
4024;BME280;2026;51.002;13.668;2022-09-30T01:43:51;98313.53;;;7.20;80.21
4024;BME280;2026;51.002;13.668;2022-09-30T01:49:07;98313.47;;;7.27;79.47
4024;BME280;2026;51.002;13.668;2022-09-30T01:54:16;98321.16;;;7.21;79.73
4024;BME280;2026;51.002;13.668;2022-09-30T01:59:24;98332.28;;;7.17;79.90
4024;BME280;2026;51.002;13.668;2022-09-30T02:04:35;98334.69;;;7.18;80.02
4024;BME280;2026;51.002;13.668;2022-09-30T02:09:43;98334.19;;;7.09;80.35
4024;BME280;2026;51.002;13.668;2022-09-30T02:14:55;98332.00;;;7.06;80.49
4024;BME280;2026;51.002;13.668;2022-09-30T02:20:02;98333.81;;;7.06;80.60
4024;BME280;2026;51.002;13.668;2022-09-30T02:25:09;98353.66;;;6.95;81.08
4024;BME280;2026;51.002;13.668;2022-09-30T02:30:14;98355.53;;;7.06;80.99
4024;BME280;2026;51.002;13.668;2022-09-30T02:35:21;98367.72;;;7.13;80.30
4024;BME280;2026;51.002;13.668;2022-09-30T02:40:30;98356.84;;;7.16;79.93
4024;BME280;2026;51.002;13.668;2022-09-30T02:45:42;98349.19;;;7.14;80.21
4024;BME280;2026;51.002;13.668;2022-09-30T02:50:52;98354.06;;;7.10;80.72
4024;BME280;2026;51.002;13.668;2022-09-30T02:56:07;98370.22;;;7.07;80.26
4024;BME280;2026;51.002;13.668;2022-09-30T03:01:15;98368.25;;;7.03;81.13
4024;BME280;2026;51.002;13.668;2022-09-30T03:06:20;98353.06;;;6.93;81.32
4024;BME280;2026;51.002;13.668;2022-09-30T03:11:25;98360.09;;;6.92;80.97
4024;BME280;2026;51.002;13.668;2022-09-30T03:16:43;98358.44;;;6.98;80.75
4024;BME280;2026;51.002;13.668;2022-09-30T03:22:06;98364.25;;;7.00;80.47
4024;BME280;2026;51.002;13.668;2022-09-30T03:27:22;98377.94;;;6.77;81.49
4024;BME280;2026;51.002;13.668;2022-09-30T03:32:42;98389.13;;;6.65;83.00
4024;BME280;2026;51.002;13.668;2022-09-30T03:37:57;98411.06;;;6.83;82.15
4024;BME280;2026;51.002;13.668;2022-09-30T03:43:07;98416.94;;;6.78;81.26
4024;BME280;2026;51.002;13.668;2022-09-30T03:48:12;98408.41;;;6.90;81.56
4024;BME280;2026;51.002;13.668;2022-09-30T03:53:17;98397.34;;;6.88;81.78
4024;BME280;2026;51.002;13.668;2022-09-30T03:58:21;98396.34;;;6.89;81.27
4024;BME280;2026;51.002;13.668;2022-09-30T04:03:25;98402.81;;;6.86;81.65
4024;BME280;2026;51.002;13.668;2022-09-30T04:08:29;98404.47;;;6.80;81.59
4024;BME280;2026;51.002;13.668;2022-09-30T04:13:34;98418.31;;;6.62;82.84
4024;BME280;2026;51.002;13.668;2022-09-30T04:18:38;98415.06;;;6.67;81.86
4024;BME280;2026;51.002;13.668;2022-09-30T04:23:42;98424.69;;;6.66;82.08
4024;BME280;2026;51.002;13.668;2022-09-30T04:28:45;98427.41;;;6.78;80.88
4024;BME280;2026;51.002;13.668;2022-09-30T04:33:48;98429.94;;;6.66;80.56
4024;BME280;2026;51.002;13.668;2022-09-30T04:38:53;98437.22;;;6.58;81.52
4024;BME280;2026;51.002;13.668;2022-09-30T04:43:56;98446.50;;;6.53;79.99
4024;BME280;2026;51.002;13.668;2022-09-30T04:48:59;98443.34;;;6.45;80.51
4024;BME280;2026;51.002;13.668;2022-09-30T04:54:08;98447.03;;;6.37;80.35
4024;BME280;2026;51.002;13.668;2022-09-30T04:59:11;98441.06;;;6.30;80.47
4024;BME280;2026;51.002;13.668;2022-09-30T05:04:14;98437.13;;;6.20;79.89
4024;BME280;2026;51.002;13.668;2022-09-30T05:09:19;98446.78;;;6.13;80.77
4024;BME280;2026;51.002;13.668;2022-09-30T05:14:22;98452.41;;;6.10;79.89
4024;BME280;2026;51.002;13.668;2022-09-30T05:19:25;98464.50;;;6.04;79.96
4024;BME280;2026;51.002;13.668;2022-09-30T05:24:30;98480.75;;;6.06;79.69
4024;BME280;2026;51.002;13.668;2022-09-30T05:29:33;98485.41;;;6.04;79.78
4024;BME280;2026;51.002;13.668;2022-09-30T05:34:35;98489.03;;;6.03;80.01
4024;BME280;2026;51.002;13.668;2022-09-30T05:39:41;98493.78;;;6.13;79.24
4024;BME280;2026;51.002;13.668;2022-09-30T05:44:43;98498.97;;;6.20;79.45
4024;BME280;2026;51.002;13.668;2022-09-30T05:49:48;98506.75;;;6.26;79.44
4024;BME280;2026;51.002;13.668;2022-09-30T05:54:58;98512.97;;;6.32;79.34
4024;BME280;2026;51.002;13.668;2022-09-30T06:00:03;98502.16;;;6.29;80.35
4024;BME280;2026;51.002;13.668;2022-09-30T06:05:26;98507.25;;;6.49;80.40
4024;BME280;2026;51.002;13.668;2022-09-30T06:10:30;98517.06;;;6.21;82.13
4024;BME280;2026;51.002;13.668;2022-09-30T06:15:33;98525.28;;;6.18;82.62
4024;BME280;2026;51.002;13.668;2022-09-30T06:20:37;98538.72;;;6.61;81.52
4024;BME280;2026;51.002;13.668;2022-09-30T06:25:41;98530.69;;;6.88;81.57
4024;BME280;2026;51.002;13.668;2022-09-30T06:30:46;98544.00;;;6.86;80.88
4024;BME280;2026;51.002;13.668;2022-09-30T06:35:49;98542.09;;;7.19;80.77
4024;BME280;2026;51.002;13.668;2022-09-30T06:40:53;98546.69;;;7.23;80.66
4024;BME280;2026;51.002;13.668;2022-09-30T06:45:57;98550.56;;;6.89;81.47
4024;BME280;2026;51.002;13.668;2022-09-30T06:51:14;98551.94;;;6.98;81.71
4024;BME280;2026;51.002;13.668;2022-09-30T06:56:19;98552.06;;;7.54;79.83
4024;BME280;2026;51.002;13.668;2022-09-30T07:01:22;98562.09;;;7.95;79.04
4024;BME280;2026;51.002;13.668;2022-09-30T07:06:25;98570.09;;;8.18;79.02
4024;BME280;2026;51.002;13.668;2022-09-30T07:11:29;98576.19;;;8.73;77.75
4024;BME280;2026;51.002;13.668;2022-09-30T07:16:32;98581.44;;;8.73;76.72
4024;BME280;2026;51.002;13.668;2022-09-30T07:21:35;98567.13;;;8.88;76.83
4024;BME280;2026;51.002;13.668;2022-09-30T07:26:40;98570.34;;;9.26;77.11
4024;BME280;2026;51.002;13.668;2022-09-30T07:31:45;98575.25;;;9.34;76.26
4024;BME280;2026;51.002;13.668;2022-09-30T07:36:48;98582.72;;;9.61;75.35
4024;BME280;2026;51.002;13.668;2022-09-30T07:41:53;98578.13;;;9.80;75.45
4024;BME280;2026;51.002;13.668;2022-09-30T07:46:56;98582.75;;;10.31;72.91
4024;BME280;2026;51.002;13.668;2022-09-30T07:52:00;98586.44;;;10.30;71.24
4024;BME280;2026;51.002;13.668;2022-09-30T07:57:05;98603.31;;;10.05;71.20
4024;BME280;2026;51.002;13.668;2022-09-30T08:02:14;98608.53;;;10.75;69.13
4024;BME280;2026;51.002;13.668;2022-09-30T08:07:18;98611.25;;;10.80;70.01
4024;BME280;2026;51.002;13.668;2022-09-30T08:12:22;98611.63;;;11.18;67.98
4024;BME280;2026;51.002;13.668;2022-09-30T08:17:25;98612.28;;;11.82;68.06
4024;BME280;2026;51.002;13.668;2022-09-30T08:22:28;98606.56;;;12.35;62.28
4024;BME280;2026;51.002;13.668;2022-09-30T08:27:33;98613.69;;;12.84;61.27
4024;BME280;2026;51.002;13.668;2022-09-30T08:32:35;98619.41;;;13.42;60.24
4024;BME280;2026;51.002;13.668;2022-09-30T08:37:38;98614.38;;;13.78;60.13
4024;BME280;2026;51.002;13.668;2022-09-30T08:42:53;98614.19;;;13.14;59.18
4024;BME280;2026;51.002;13.668;2022-09-30T08:48:06;98620.53;;;13.18;60.19
4024;BME280;2026;51.002;13.668;2022-09-30T08:53:17;98628.09;;;12.49;60.33
4024;BME280;2026;51.002;13.668;2022-09-30T08:58:27;98616.88;;;12.37;60.80
4024;BME280;2026;51.002;13.668;2022-09-30T09:03:32;98611.94;;;12.68;60.33
4024;BME280;2026;51.002;13.668;2022-09-30T09:08:48;98621.66;;;13.65;59.34
4024;BME280;2026;51.002;13.668;2022-09-30T09:14:00;98638.41;;;13.38;57.89
4024;BME280;2026;51.002;13.668;2022-09-30T09:19:07;98640.13;;;13.60;58.16
4024;BME280;2026;51.002;13.668;2022-09-30T09:24:14;98639.00;;;13.94;60.32
4024;BME280;2026;51.002;13.668;2022-09-30T09:29:36;98636.09;;;14.70;57.20
4024;BME280;2026;51.002;13.668;2022-09-30T09:34:40;98640.53;;;13.42;55.99
4024;BME280;2026;51.002;13.668;2022-09-30T09:39:54;98638.75;;;13.52;54.18
4024;BME280;2026;51.002;13.668;2022-09-30T09:45:12;98637.28;;;12.69;55.11
4024;BME280;2026;51.002;13.668;2022-09-30T09:50:22;98631.78;;;13.74;53.39
4024;BME280;2026;51.002;13.668;2022-09-30T09:55:25;98629.69;;;13.81;51.07
4024;BME280;2026;51.002;13.668;2022-09-30T10:00:30;98634.75;;;14.57;50.20
4024;BME280;2026;51.002;13.668;2022-09-30T10:06:03;98634.09;;;14.24;50.71
4024;BME280;2026;51.002;13.668;2022-09-30T10:11:17;98622.19;;;14.16;50.06
4024;BME280;2026;51.002;13.668;2022-09-30T10:16:27;98624.44;;;14.71;50.84
4024;BME280;2026;51.002;13.668;2022-09-30T10:21:32;98616.78;;;14.85;48.78
4024;BME280;2026;51.002;13.668;2022-09-30T10:26:43;98620.13;;;14.28;48.96
4024;BME280;2026;51.002;13.668;2022-09-30T10:31:51;98624.03;;;14.15;49.32
4024;BME280;2026;51.002;13.668;2022-09-30T10:37:01;98632.97;;;15.35;50.90
4024;BME280;2026;51.002;13.668;2022-09-30T10:42:15;98621.53;;;15.55;48.32
4024;BME280;2026;51.002;13.668;2022-09-30T10:47:28;98634.09;;;14.18;51.46
4024;BME280;2026;51.002;13.668;2022-09-30T10:52:39;98625.00;;;14.88;50.54
4024;BME280;2026;51.002;13.668;2022-09-30T10:57:50;98627.94;;;15.39;48.45
4024;BME280;2026;51.002;13.668;2022-09-30T11:02:57;98640.28;;;15.95;48.30
4024;BME280;2026;51.002;13.668;2022-09-30T11:08:04;98641.97;;;15.18;48.53
4024;BME280;2026;51.002;13.668;2022-09-30T11:13:16;98633.50;;;15.16;47.33
4024;BME280;2026;51.002;13.668;2022-09-30T11:18:28;98633.75;;;15.46;47.95
4024;BME280;2026;51.002;13.668;2022-09-30T11:23:36;98633.75;;;15.10;48.38
4024;BME280;2026;51.002;13.668;2022-09-30T11:28:54;98631.34;;;14.87;47.45
4024;BME280;2026;51.002;13.668;2022-09-30T11:34:14;98632.94;;;13.99;50.99
4024;BME280;2026;51.002;13.668;2022-09-30T11:39:31;98628.88;;;14.34;51.21
4024;BME280;2026;51.002;13.668;2022-09-30T11:44:40;98624.19;;;14.77;51.01
4024;BME280;2026;51.002;13.668;2022-09-30T11:55:34;98609.91;;;14.89;48.61
4024;BME280;2026;51.002;13.668;2022-09-30T12:00:42;98605.84;;;15.75;47.61
4024;BME280;2026;51.002;13.668;2022-09-30T12:05:52;98606.16;;;15.73;46.28
4024;BME280;2026;51.002;13.668;2022-09-30T12:10:59;98617.75;;;15.88;46.10
4024;BME280;2026;51.002;13.668;2022-09-30T12:16:09;98618.59;;;15.78;46.73
4024;BME280;2026;51.002;13.668;2022-09-30T12:21:20;98608.66;;;16.20;44.81
4024;BME280;2026;51.002;13.668;2022-09-30T12:26:24;98606.09;;;15.78;46.53
4024;BME280;2026;51.002;13.668;2022-09-30T12:31:47;98612.00;;;15.59;46.29
4024;BME280;2026;51.002;13.668;2022-09-30T12:37:13;98605.34;;;15.72;46.66
4024;BME280;2026;51.002;13.668;2022-09-30T12:42:32;98602.41;;;15.74;44.65
4024;BME280;2026;51.002;13.668;2022-09-30T12:47:45;98602.94;;;15.76;47.05
4024;BME280;2026;51.002;13.668;2022-09-30T12:52:51;98605.09;;;16.35;46.78
4024;BME280;2026;51.002;13.668;2022-09-30T12:57:55;98592.66;;;17.10;45.58
4024;BME280;2026;51.002;13.668;2022-09-30T13:03:03;98593.69;;;16.34;43.63
4024;BME280;2026;51.002;13.668;2022-09-30T13:08:22;98590.53;;;15.61;45.87
4024;BME280;2026;51.002;13.668;2022-09-30T13:13:27;98592.22;;;16.12;45.36
4024;BME280;2026;51.002;13.668;2022-09-30T13:18:58;98596.53;;;15.88;47.31
4024;BME280;2026;51.002;13.668;2022-09-30T13:24:03;98606.22;;;15.31;47.88
4024;BME280;2026;51.002;13.668;2022-09-30T13:34:56;98612.94;;;15.95;44.75
4024;BME280;2026;51.002;13.668;2022-09-30T13:40:01;98617.81;;;16.43;45.83
4024;BME280;2026;51.002;13.668;2022-09-30T13:45:10;98612.66;;;16.57;45.45
4024;BME280;2026;51.002;13.668;2022-09-30T13:50:18;98623.88;;;16.49;46.21
4024;BME280;2026;51.002;13.668;2022-09-30T13:55:26;98636.78;;;16.10;49.46
4024;BME280;2026;51.002;13.668;2022-09-30T14:00:45;98637.63;;;15.90;45.37
4024;BME280;2026;51.002;13.668;2022-09-30T14:05:58;98638.59;;;16.20;47.12
4024;BME280;2026;51.002;13.668;2022-09-30T14:11:15;98628.81;;;16.16;47.10
4024;BME280;2026;51.002;13.668;2022-09-30T14:16:43;98636.31;;;15.88;46.34
4024;BME280;2026;51.002;13.668;2022-09-30T14:21:51;98638.44;;;15.91;48.18
4024;BME280;2026;51.002;13.668;2022-09-30T14:27:05;98623.53;;;16.00;48.30
4024;BME280;2026;51.002;13.668;2022-09-30T14:32:13;98626.75;;;15.92;48.04
4024;BME280;2026;51.002;13.668;2022-09-30T14:37:27;98623.91;;;15.67;49.05
4024;BME280;2026;51.002;13.668;2022-09-30T14:42:35;98631.06;;;15.62;52.66
4024;BME280;2026;51.002;13.668;2022-09-30T14:47:43;98631.63;;;15.58;53.88
4024;BME280;2026;51.002;13.668;2022-09-30T14:52:49;98640.94;;;15.30;55.30
4024;BME280;2026;51.002;13.668;2022-09-30T14:58:22;98644.88;;;15.01;57.03
4024;BME280;2026;51.002;13.668;2022-09-30T15:03:29;98635.31;;;14.74;58.67
4024;BME280;2026;51.002;13.668;2022-09-30T15:08:34;98632.16;;;14.88;58.42
4024;BME280;2026;51.002;13.668;2022-09-30T15:13:38;98639.59;;;14.96;57.94
4024;BME280;2026;51.002;13.668;2022-09-30T15:18:43;98653.59;;;14.86;58.13
4024;BME280;2026;51.002;13.668;2022-09-30T15:23:49;98650.69;;;14.83;58.09
4024;BME280;2026;51.002;13.668;2022-09-30T15:28:54;98655.97;;;14.72;59.23
4024;BME280;2026;51.002;13.668;2022-09-30T15:34:03;98648.03;;;14.72;57.78
4024;BME280;2026;51.002;13.668;2022-09-30T15:39:17;98647.69;;;14.48;59.14
4024;BME280;2026;51.002;13.668;2022-09-30T15:44:37;98662.84;;;14.73;58.86
4024;BME280;2026;51.002;13.668;2022-09-30T15:49:45;98655.91;;;14.62;59.37
4024;BME280;2026;51.002;13.668;2022-09-30T15:54:50;98658.59;;;14.67;59.17
4024;BME280;2026;51.002;13.668;2022-09-30T15:59:59;98667.53;;;14.51;60.13
4024;BME280;2026;51.002;13.668;2022-09-30T16:05:24;98657.97;;;14.39;60.17
4024;BME280;2026;51.002;13.668;2022-09-30T16:10:27;98672.44;;;14.16;60.63
4024;BME280;2026;51.002;13.668;2022-09-30T16:15:35;98663.41;;;13.68;60.71
4024;BME280;2026;51.002;13.668;2022-09-30T16:20:54;98670.78;;;13.61;60.52
4024;BME280;2026;51.002;13.668;2022-09-30T16:26:18;98669.28;;;13.05;61.77
4024;BME280;2026;51.002;13.668;2022-09-30T16:31:26;98673.09;;;12.87;62.66
4024;BME280;2026;51.002;13.668;2022-09-30T16:36:29;98671.91;;;12.50;63.59
4024;BME280;2026;51.002;13.668;2022-09-30T16:41:34;98683.41;;;12.44;63.72
4024;BME280;2026;51.002;13.668;2022-09-30T16:46:40;98679.91;;;12.16;64.38
4024;BME280;2026;51.002;13.668;2022-09-30T16:51:45;98697.03;;;11.96;65.02
4024;BME280;2026;51.002;13.668;2022-09-30T16:56:48;98699.03;;;11.89;65.73
4024;BME280;2026;51.002;13.668;2022-09-30T17:01:53;98698.22;;;11.66;66.05
4024;BME280;2026;51.002;13.668;2022-09-30T17:06:56;98699.00;;;11.84;65.56
4024;BME280;2026;51.002;13.668;2022-09-30T17:12:00;98702.91;;;11.64;65.38
4024;BME280;2026;51.002;13.668;2022-09-30T17:17:04;98704.50;;;11.31;66.23
4024;BME280;2026;51.002;13.668;2022-09-30T17:22:13;98712.94;;;11.33;64.99
4024;BME280;2026;51.002;13.668;2022-09-30T17:27:16;98713.03;;;11.38;65.61
4024;BME280;2026;51.002;13.668;2022-09-30T17:32:20;98713.72;;;11.16;67.13
4024;BME280;2026;51.002;13.668;2022-09-30T17:37:23;98725.91;;;10.76;68.23
4024;BME280;2026;51.002;13.668;2022-09-30T17:42:27;98715.63;;;11.04;66.71
4024;BME280;2026;51.002;13.668;2022-09-30T17:47:49;98714.66;;;11.10;65.98
4024;BME280;2026;51.002;13.668;2022-09-30T17:52:52;98715.72;;;10.97;66.80
4024;BME280;2026;51.002;13.668;2022-09-30T17:57:56;98712.31;;;10.97;68.31
4024;BME280;2026;51.002;13.668;2022-09-30T18:03:00;98713.56;;;11.06;68.01
4024;BME280;2026;51.002;13.668;2022-09-30T18:08:04;98711.97;;;11.05;68.79
4024;BME280;2026;51.002;13.668;2022-09-30T18:13:07;98719.59;;;11.06;67.08
4024;BME280;2026;51.002;13.668;2022-09-30T18:18:11;98714.53;;;11.17;65.27
4024;BME280;2026;51.002;13.668;2022-09-30T18:23:16;98712.31;;;11.26;63.10
4024;BME280;2026;51.002;13.668;2022-09-30T18:28:20;98716.75;;;11.08;64.48
4024;BME280;2026;51.002;13.668;2022-09-30T18:33:24;98726.38;;;10.61;69.15
4024;BME280;2026;51.002;13.668;2022-09-30T18:38:27;98720.81;;;10.46;69.93
4024;BME280;2026;51.002;13.668;2022-09-30T18:43:30;98722.34;;;10.71;69.31
4024;BME280;2026;51.002;13.668;2022-09-30T18:48:34;98721.97;;;10.50;70.45
4024;BME280;2026;51.002;13.668;2022-09-30T18:53:37;98713.47;;;10.48;70.46
4024;BME280;2026;51.002;13.668;2022-09-30T18:58:40;98717.97;;;10.35;70.10
4024;BME280;2026;51.002;13.668;2022-09-30T19:03:45;98721.41;;;10.12;71.16
4024;BME280;2026;51.002;13.668;2022-09-30T19:08:48;98720.53;;;9.94;71.36
4024;BME280;2026;51.002;13.668;2022-09-30T19:13:51;98726.53;;;9.47;73.10
4024;BME280;2026;51.002;13.668;2022-09-30T19:19:00;98722.66;;;9.62;71.68
4024;BME280;2026;51.002;13.668;2022-09-30T19:24:06;98718.94;;;9.39;72.40
4024;BME280;2026;51.002;13.668;2022-09-30T19:29:10;98713.56;;;9.34;72.39
4024;BME280;2026;51.002;13.668;2022-09-30T19:34:14;98703.59;;;9.12;73.02
4024;BME280;2026;51.002;13.668;2022-09-30T19:39:32;98704.16;;;9.14;72.62
4024;BME280;2026;51.002;13.668;2022-09-30T19:44:46;98698.09;;;9.01;72.58
4024;BME280;2026;51.002;13.668;2022-09-30T19:49:50;98695.88;;;8.98;72.17
4024;BME280;2026;51.002;13.668;2022-09-30T19:54:53;98698.25;;;8.88;72.39
4024;BME280;2026;51.002;13.668;2022-09-30T20:00:09;98705.25;;;8.76;72.93
4024;BME280;2026;51.002;13.668;2022-09-30T20:05:15;98696.31;;;8.65;73.00
4024;BME280;2026;51.002;13.668;2022-09-30T20:10:18;98707.72;;;8.58;72.76
4024;BME280;2026;51.002;13.668;2022-09-30T20:15:22;98706.75;;;8.53;72.93
4024;BME280;2026;51.002;13.668;2022-09-30T20:20:48;98698.75;;;8.48;72.90
4024;BME280;2026;51.002;13.668;2022-09-30T20:25:52;98700.78;;;8.45;72.91
4024;BME280;2026;51.002;13.668;2022-09-30T20:30:55;98712.72;;;8.23;73.86
4024;BME280;2026;51.002;13.668;2022-09-30T20:36:00;98720.72;;;8.28;73.48
4024;BME280;2026;51.002;13.668;2022-09-30T20:41:03;98714.56;;;7.97;74.93
4024;BME280;2026;51.002;13.668;2022-09-30T20:46:06;98714.94;;;8.00;75.02
4024;BME280;2026;51.002;13.668;2022-09-30T20:51:12;98727.38;;;8.05;74.49
4024;BME280;2026;51.002;13.668;2022-09-30T20:56:16;98733.38;;;8.12;74.26
4024;BME280;2026;51.002;13.668;2022-09-30T21:01:21;98732.63;;;8.05;74.31
4024;BME280;2026;51.002;13.668;2022-09-30T21:06:27;98735.97;;;7.94;75.15
4024;BME280;2026;51.002;13.668;2022-09-30T21:11:30;98737.22;;;8.10;74.55
4024;BME280;2026;51.002;13.668;2022-09-30T21:16:34;98736.75;;;8.38;73.33
4024;BME280;2026;51.002;13.668;2022-09-30T21:21:38;98737.03;;;8.49;72.70
4024;BME280;2026;51.002;13.668;2022-09-30T21:26:41;98732.81;;;8.48;73.12
4024;BME280;2026;51.002;13.668;2022-09-30T21:31:44;98738.94;;;8.41;73.09
4024;BME280;2026;51.002;13.668;2022-09-30T21:36:48;98735.44;;;8.48;72.81
4024;BME280;2026;51.002;13.668;2022-09-30T21:41:51;98738.06;;;8.48;72.88
4024;BME280;2026;51.002;13.668;2022-09-30T21:46:55;98735.88;;;8.44;73.25
4024;BME280;2026;51.002;13.668;2022-09-30T21:52:00;98730.72;;;8.38;73.63
4024;BME280;2026;51.002;13.668;2022-09-30T21:57:08;98733.03;;;8.27;74.17
4024;BME280;2026;51.002;13.668;2022-09-30T22:02:11;98730.91;;;8.36;73.36
4024;BME280;2026;51.002;13.668;2022-09-30T22:07:15;98722.63;;;8.39;73.25
4024;BME280;2026;51.002;13.668;2022-09-30T22:12:19;98720.13;;;8.44;73.29
4024;BME280;2026;51.002;13.668;2022-09-30T22:17:22;98720.75;;;8.46;73.19
4024;BME280;2026;51.002;13.668;2022-09-30T22:22:27;98720.00;;;8.39;73.14
4024;BME280;2026;51.002;13.668;2022-09-30T22:27:30;98717.47;;;7.88;75.51
4024;BME280;2026;51.002;13.668;2022-09-30T22:32:33;98731.94;;;8.16;74.63
4024;BME280;2026;51.002;13.668;2022-09-30T22:37:37;98726.69;;;8.35;73.50
4024;BME280;2026;51.002;13.668;2022-09-30T22:42:57;98726.97;;;8.45;74.56
4024;BME280;2026;51.002;13.668;2022-09-30T22:48:00;98723.50;;;8.52;73.17
4024;BME280;2026;51.002;13.668;2022-09-30T22:53:05;98737.13;;;8.42;73.55
4024;BME280;2026;51.002;13.668;2022-09-30T22:58:08;98735.94;;;8.38;73.52
4024;BME280;2026;51.002;13.668;2022-09-30T23:03:11;98732.00;;;8.47;73.39
4024;BME280;2026;51.002;13.668;2022-09-30T23:08:15;98737.69;;;8.44;73.53
4024;BME280;2026;51.002;13.668;2022-09-30T23:13:18;98744.91;;;8.30;73.63
4024;BME280;2026;51.002;13.668;2022-09-30T23:18:22;98750.78;;;7.49;76.91
4024;BME280;2026;51.002;13.668;2022-09-30T23:23:28;98751.19;;;7.46;76.36
4024;BME280;2026;51.002;13.668;2022-09-30T23:28:31;98752.03;;;7.40;76.67
4024;BME280;2026;51.002;13.668;2022-09-30T23:33:34;98758.44;;;7.44;76.89
4024;BME280;2026;51.002;13.668;2022-09-30T23:38:39;98750.44;;;7.39;76.82
4024;BME280;2026;51.002;13.668;2022-09-30T23:43:42;98749.69;;;7.63;76.62
4024;BME280;2026;51.002;13.668;2022-09-30T23:48:48;98746.22;;;7.70;76.43
4024;BME280;2026;51.002;13.668;2022-09-30T23:53:53;98746.38;;;7.75;76.47
4024;BME280;2026;51.002;13.668;2022-09-30T23:58:56;98752.69;;;7.67;76.90
